createdAt,value
2023-05-13T00:02:08.474Z,12.86
2023-05-13T00:04:40.287Z,12.80
2023-05-13T00:07:12.202Z,12.74
2023-05-13T00:09:44.110Z,12.68
2023-05-13T00:12:16.045Z,12.62
2023-05-13T00:14:48.134Z,12.58
2023-05-13T00:17:19.778Z,12.57
2023-05-13T00:19:51.771Z,12.57
2023-05-13T00:22:23.668Z,12.56
2023-05-13T00:24:55.759Z,12.55
2023-05-13T00:27:27.419Z,12.54
2023-05-13T00:30:00.258Z,12.53
2023-05-13T00:32:33.422Z,12.52
2023-05-13T00:35:16.004Z,12.52
2023-05-13T00:37:48.007Z,12.52
2023-05-13T00:40:24.246Z,12.52
2023-05-13T00:42:56.085Z,12.50
2023-05-13T00:45:27.602Z,12.47
2023-05-13T00:48:00.365Z,12.44
2023-05-13T00:50:32.796Z,12.40
2023-05-13T00:53:06.446Z,12.37
2023-05-13T00:55:46.272Z,12.34
2023-05-13T00:58:18.218Z,12.33
2023-05-13T01:00:59.661Z,12.31
2023-05-13T01:03:41.172Z,12.30
2023-05-13T01:06:23.379Z,12.27
2023-05-13T01:09:21.228Z,12.28
2023-05-13T01:11:53.138Z,12.24
2023-05-13T01:14:27.226Z,12.25
2023-05-13T01:17:26.971Z,12.25
2023-05-13T01:19:59.609Z,12.20
2023-05-13T01:25:01.452Z,12.16
2023-05-13T01:27:34.461Z,12.14
2023-05-13T01:30:24.213Z,12.10
2023-05-13T01:32:56.990Z,12.07
2023-05-13T01:35:29.477Z,12.05
2023-05-13T01:38:01.917Z,12.02
2023-05-13T01:40:35.083Z,12.00
2023-05-13T01:43:08.966Z,11.97
2023-05-13T01:45:42.179Z,11.94
2023-05-13T01:48:14.865Z,11.93
2023-05-13T01:50:48.362Z,11.94
2023-05-13T01:53:21.711Z,11.94
2023-05-13T01:55:54.426Z,11.93
2023-05-13T01:58:26.265Z,11.93
2023-05-13T02:00:58.929Z,11.93
2023-05-13T02:03:30.964Z,11.94
2023-05-13T02:06:04.199Z,11.94
2023-05-13T02:08:36.646Z,11.94
2023-05-13T02:11:08.726Z,11.95
2023-05-13T02:13:41.109Z,11.93
2023-05-13T02:16:34.079Z,11.93
2023-05-13T02:19:07.836Z,11.89
2023-05-13T02:21:39.782Z,11.88
2023-05-13T02:24:11.968Z,11.86
2023-05-13T02:26:45.136Z,11.84
2023-05-13T02:29:17.321Z,11.86
2023-05-13T02:31:49.220Z,11.86
2023-05-13T02:34:21.452Z,11.86
2023-05-13T02:36:53.530Z,11.89
2023-05-13T02:39:25.248Z,11.90
2023-05-13T02:42:07.499Z,11.92
2023-05-13T02:44:40.478Z,11.93
2023-05-13T02:47:13.327Z,11.94
2023-05-13T02:49:45.129Z,11.93
2023-05-13T02:52:17.306Z,11.93
2023-05-13T02:54:49.099Z,11.94
2023-05-13T02:57:21.029Z,11.97
2023-05-13T02:59:52.693Z,12.07
2023-05-13T03:02:24.838Z,12.17
2023-05-13T03:04:56.779Z,12.33
2023-05-13T03:07:28.724Z,12.48
2023-05-13T03:10:02.266Z,12.55
2023-05-13T03:12:35.249Z,12.61
2023-05-13T03:15:08.194Z,12.63
2023-05-13T03:17:44.497Z,12.69
2023-05-13T03:20:16.573Z,12.75
2023-05-13T03:22:48.330Z,12.81
2023-05-13T03:25:20.281Z,12.87
2023-05-13T03:27:53.748Z,12.93
2023-05-13T03:30:26.647Z,13.03
2023-05-13T03:33:00.198Z,13.11
2023-05-13T03:35:32.720Z,13.19
2023-05-13T03:38:04.924Z,13.24
2023-05-13T03:40:38.516Z,13.31
2023-05-13T03:43:10.546Z,13.39
2023-05-13T03:45:45.108Z,13.49
2023-05-13T03:48:17.228Z,13.57
2023-05-13T03:50:49.203Z,13.69
2023-05-13T03:53:21.597Z,13.80
2023-05-13T03:55:53.692Z,13.89
2023-05-13T03:58:25.489Z,13.99
2023-05-13T04:00:57.643Z,14.09
2023-05-13T04:03:29.452Z,14.17
2023-05-13T04:06:01.301Z,14.25
2023-05-13T04:08:33.878Z,14.35
2023-05-13T04:11:05.497Z,14.45
2023-05-13T04:13:38.205Z,14.57
2023-05-13T04:16:09.842Z,14.67
2023-05-13T04:18:41.977Z,14.75
2023-05-13T04:21:13.579Z,14.86
2023-05-13T04:23:45.525Z,14.97
2023-05-13T04:26:17.461Z,15.05
2023-05-13T04:28:49.780Z,15.16
2023-05-13T04:31:22.695Z,15.28
2023-05-13T04:33:56.030Z,15.37
2023-05-13T04:36:28.784Z,15.49
2023-05-13T04:39:00.730Z,15.60
2023-05-13T04:41:32.870Z,15.67
2023-05-13T04:44:06.331Z,15.77
2023-05-13T04:46:40.598Z,15.89
2023-05-13T04:49:12.507Z,16.01
2023-05-13T04:51:46.312Z,16.17
2023-05-13T04:54:18.480Z,16.30
2023-05-13T04:56:50.530Z,16.38
2023-05-13T04:59:22.230Z,16.48
2023-05-13T05:01:55.224Z,16.58
2023-05-13T05:04:27.510Z,16.67
2023-05-13T05:06:59.838Z,16.80
2023-05-13T05:09:31.980Z,16.92
2023-05-13T05:12:04.269Z,17.05
2023-05-13T05:14:38.644Z,17.19
2023-05-13T05:17:11.087Z,17.32
2023-05-13T05:19:42.776Z,17.43
2023-05-13T05:22:14.578Z,17.58
2023-05-13T05:24:48.063Z,17.68
2023-05-13T05:27:19.803Z,17.80
2023-05-13T05:29:51.453Z,17.98
2023-05-13T05:32:23.650Z,18.20
2023-05-13T05:34:55.727Z,18.39
2023-05-13T05:37:27.998Z,18.61
2023-05-13T05:39:59.933Z,18.77
2023-05-13T05:42:31.800Z,19.01
2023-05-13T05:45:03.495Z,19.19
2023-05-13T05:47:36.010Z,19.37
2023-05-13T05:50:08.776Z,19.48
2023-05-13T05:52:41.310Z,19.61
2023-05-13T05:55:13.759Z,19.74
2023-05-13T05:57:45.421Z,19.90
2023-05-13T06:00:29.257Z,20.01
2023-05-13T06:03:01.244Z,20.09
2023-05-13T06:05:35.560Z,20.23
2023-05-13T06:08:07.577Z,20.31
2023-05-13T06:10:39.754Z,20.40
2023-05-13T06:13:11.959Z,20.48
2023-05-13T06:15:43.845Z,20.58
2023-05-13T06:18:15.961Z,20.63
2023-05-13T06:20:47.873Z,20.69
2023-05-13T06:23:20.100Z,20.84
2023-05-13T06:25:51.960Z,20.89
2023-05-13T06:28:23.661Z,20.95
2023-05-13T06:30:55.805Z,21.02
2023-05-13T06:33:27.539Z,21.14
2023-05-13T06:36:00.148Z,21.22
2023-05-13T06:38:32.299Z,21.33
2023-05-13T06:41:04.560Z,21.52
2023-05-13T06:43:39.166Z,21.73
2023-05-13T06:46:15.524Z,21.86
2023-05-13T06:48:47.376Z,22.03
2023-05-13T06:51:19.059Z,22.23
2023-05-13T06:53:50.631Z,22.33
2023-05-13T06:56:23.142Z,22.47
2023-05-13T06:58:54.829Z,22.66
2023-05-13T07:01:28.007Z,22.74
2023-05-13T07:04:00.493Z,22.86
2023-05-13T07:06:33.808Z,23.02
2023-05-13T07:09:08.321Z,23.07
2023-05-13T07:11:40.232Z,23.13
2023-05-13T07:14:12.392Z,23.30
2023-05-13T07:16:44.284Z,23.47
2023-05-13T07:19:15.982Z,23.65
2023-05-13T07:21:49.759Z,23.78
2023-05-13T07:24:22.195Z,23.94
2023-05-13T07:26:54.107Z,24.08
2023-05-13T07:29:27.628Z,24.24
2023-05-13T07:31:59.412Z,24.40
2023-05-13T07:34:31.752Z,24.56
2023-05-13T07:37:04.659Z,24.66
2023-05-13T07:39:37.182Z,24.64
2023-05-13T07:42:09.032Z,24.58
2023-05-13T07:44:40.837Z,24.70
2023-05-13T07:47:13.717Z,24.86
2023-05-13T07:49:45.697Z,24.97
2023-05-13T07:52:17.613Z,25.07
2023-05-13T07:54:49.504Z,25.23
2023-05-13T07:57:21.458Z,25.36
2023-05-13T07:59:54.314Z,25.59
2023-05-13T08:02:26.203Z,25.79
2023-05-13T08:04:57.965Z,25.85
2023-05-13T08:07:29.769Z,25.81
2023-05-13T08:10:01.755Z,25.81
2023-05-13T08:12:33.820Z,25.88
2023-05-13T08:15:07.309Z,25.81
2023-05-13T08:17:54.324Z,25.75
2023-05-13T08:20:27.655Z,25.81
2023-05-13T08:22:59.452Z,25.94
2023-05-13T08:25:31.361Z,25.86
2023-05-13T08:28:03.869Z,25.94
2023-05-13T08:30:35.845Z,26.09
2023-05-13T08:33:08.444Z,26.35
2023-05-13T08:35:40.123Z,26.35
2023-05-13T08:38:22.279Z,26.46
2023-05-13T08:40:53.946Z,26.64
2023-05-13T08:43:26.138Z,26.70
2023-05-13T08:45:58.599Z,26.79
2023-05-13T08:48:30.346Z,26.68
2023-05-13T08:51:02.612Z,26.64
2023-05-13T08:53:35.611Z,26.80
2023-05-13T08:56:09.596Z,27.04
2023-05-13T08:58:42.123Z,27.13
2023-05-13T09:01:13.953Z,27.34
2023-05-13T09:03:48.946Z,27.66
2023-05-13T09:06:21.130Z,27.81
2023-05-13T09:08:53.064Z,27.83
2023-05-13T09:11:24.704Z,27.87
2023-05-13T09:14:23.494Z,27.80
2023-05-13T09:16:57.028Z,27.90
2023-05-13T09:19:28.750Z,27.95
2023-05-13T09:22:00.511Z,27.96
2023-05-13T09:24:33.706Z,27.89
2023-05-13T09:27:05.456Z,27.96
2023-05-13T09:29:37.183Z,28.05
2023-05-13T09:32:09.428Z,28.21
2023-05-13T09:34:41.361Z,28.43
2023-05-13T09:37:16.179Z,28.59
2023-05-13T09:39:48.145Z,28.63
2023-05-13T09:42:20.972Z,28.69
2023-05-13T09:44:52.648Z,28.71
2023-05-13T09:47:25.580Z,28.81
2023-05-13T09:49:58.021Z,28.87
2023-05-13T09:52:32.024Z,28.81
2023-05-13T09:55:05.435Z,28.88
2023-05-13T10:00:31.621Z,28.82
2023-05-13T10:02:53.914Z,28.98
2023-05-13T10:05:25.828Z,29.24
2023-05-13T10:07:57.604Z,29.41
2023-05-13T10:10:33.066Z,29.38
2023-05-13T10:13:11.548Z,29.23
2023-05-13T10:15:54.003Z,28.94
2023-05-13T10:18:26.018Z,28.90
2023-05-13T10:20:57.590Z,28.93
2023-05-13T10:23:29.380Z,28.94
2023-05-13T10:26:01.414Z,29.06
2023-05-13T10:28:34.231Z,29.20
2023-05-13T10:31:05.900Z,29.19
2023-05-13T10:33:37.732Z,29.15
2023-05-13T10:36:19.872Z,29.30
2023-05-13T10:39:04.974Z,29.28
2023-05-13T10:42:00.314Z,29.36
2023-05-13T10:44:33.804Z,29.45
2023-05-13T10:47:05.702Z,29.32
2023-05-13T10:49:37.661Z,29.22
2023-05-13T10:52:13.516Z,28.82
2023-05-13T10:54:44.474Z,28.23
2023-05-13T10:57:17.761Z,27.81
2023-05-13T11:00:07.865Z,27.40
2023-05-13T11:02:40.001Z,27.05
2023-05-13T11:05:13.475Z,26.63
2023-05-13T11:07:45.598Z,26.27
2023-05-13T11:10:32.786Z,25.95
2023-05-13T11:13:18.184Z,25.69
2023-05-13T11:16:11.138Z,25.56
2023-05-13T11:18:43.117Z,25.43
2023-05-13T11:21:15.019Z,25.35
2023-05-13T11:24:00.338Z,25.30
2023-05-13T11:26:49.046Z,25.24
2023-05-13T11:29:31.227Z,25.13
2023-05-13T11:32:03.911Z,25.05
2023-05-13T11:34:36.289Z,25.01
2023-05-13T11:37:09.318Z,24.98
2023-05-13T11:39:41.992Z,24.93
2023-05-13T11:42:13.869Z,24.88
2023-05-13T11:44:47.773Z,24.82
2023-05-13T11:47:28.445Z,24.73
2023-05-13T11:50:00.584Z,24.60
2023-05-13T11:52:33.742Z,24.50
2023-05-13T11:55:07.178Z,24.43
2023-05-13T11:57:39.443Z,24.43
2023-05-13T12:00:12.701Z,24.39
2023-05-13T12:02:46.259Z,24.31
2023-05-13T12:05:18.101Z,24.27
2023-05-13T12:07:50.964Z,24.27
2023-05-13T12:10:24.711Z,24.27
2023-05-13T12:12:56.676Z,24.28
2023-05-13T12:15:28.381Z,24.26
2023-05-13T12:18:00.332Z,24.24
2023-05-13T12:20:32.826Z,24.24
2023-05-13T12:23:05.341Z,24.24
2023-05-13T12:25:48.060Z,24.39
2023-05-13T12:28:40.745Z,24.43
2023-05-13T12:31:15.773Z,24.41
2023-05-13T12:33:49.528Z,24.36
2023-05-13T12:36:28.192Z,24.48
2023-05-13T12:39:01.836Z,24.63
2023-05-13T12:41:35.079Z,24.81
2023-05-13T12:44:11.749Z,24.99
2023-05-13T12:46:53.499Z,25.19
2023-05-13T12:49:25.270Z,25.40
2023-05-13T12:51:57.385Z,25.63
2023-05-13T12:54:29.130Z,25.79
2023-05-13T12:57:00.990Z,25.89
2023-05-13T12:59:34.883Z,26.01
2023-05-13T13:02:07.008Z,26.09
2023-05-13T13:04:38.821Z,26.15
2023-05-13T13:07:12.207Z,26.25
2023-05-13T13:09:44.000Z,26.31
2023-05-13T13:12:15.758Z,26.21
2023-05-13T13:14:47.580Z,26.07
2023-05-13T13:17:19.305Z,26.00
2023-05-13T13:19:51.365Z,25.81
2023-05-13T13:22:23.753Z,25.68
2023-05-13T13:24:55.598Z,25.58
2023-05-13T13:27:27.319Z,25.37
2023-05-13T13:29:59.014Z,25.20
2023-05-13T13:32:31.074Z,25.13
2023-05-13T13:35:03.519Z,25.20
2023-05-13T13:37:36.262Z,25.32
2023-05-13T13:40:29.823Z,25.45
2023-05-13T13:43:01.454Z,25.56
2023-05-13T13:45:33.086Z,25.67
2023-05-13T13:48:05.396Z,25.73
2023-05-13T13:50:37.101Z,25.66
2023-05-13T13:53:09.094Z,25.61
2023-05-13T13:55:40.750Z,25.50
2023-05-13T13:58:12.440Z,25.40
2023-05-13T14:00:44.980Z,25.39
2023-05-13T14:03:16.948Z,25.37
2023-05-13T14:05:49.186Z,25.42
2023-05-13T14:08:20.820Z,25.41
2023-05-13T14:10:53.628Z,25.31
2023-05-13T14:13:25.765Z,25.17
2023-05-13T14:15:57.519Z,24.95
2023-05-13T14:18:29.489Z,24.79
2023-05-13T14:21:01.228Z,24.70
2023-05-13T14:23:33.237Z,24.60
2023-05-13T14:26:04.957Z,24.46
2023-05-13T14:28:36.550Z,24.33
2023-05-13T14:31:08.285Z,24.23
2023-05-13T14:33:40.214Z,24.08
2023-05-13T14:36:13.606Z,23.95
2023-05-13T14:38:45.195Z,23.91
2023-05-13T14:41:18.579Z,23.89
2023-05-13T14:43:50.178Z,23.84
2023-05-13T14:46:22.519Z,23.83
2023-05-13T14:48:54.067Z,23.79
2023-05-13T14:51:25.737Z,23.73
2023-05-13T14:53:57.368Z,23.69
2023-05-13T14:56:29.223Z,23.69
2023-05-13T14:59:01.817Z,23.70
2023-05-13T15:01:34.023Z,23.68
2023-05-13T15:04:06.080Z,23.65
2023-05-13T15:06:39.107Z,23.65
2023-05-13T15:09:10.911Z,23.62
2023-05-13T15:11:42.644Z,23.58
2023-05-13T15:14:16.308Z,23.58
2023-05-13T15:16:47.951Z,23.59
2023-05-13T15:19:20.039Z,23.56
2023-05-13T15:21:51.685Z,23.52
2023-05-13T15:24:23.366Z,23.53
2023-05-13T15:26:54.976Z,23.60
2023-05-13T15:29:26.900Z,23.66
2023-05-13T15:31:59.059Z,23.68
2023-05-13T15:34:30.998Z,23.72
2023-05-13T15:37:02.931Z,23.75
2023-05-13T15:39:34.716Z,23.78
2023-05-13T15:42:06.841Z,23.76
2023-05-13T15:44:38.573Z,23.76
2023-05-13T15:47:10.349Z,23.73
2023-05-13T15:49:42.094Z,23.67
2023-05-13T15:52:14.898Z,23.63
2023-05-13T15:54:46.683Z,23.53
2023-05-13T15:57:19.292Z,23.47
2023-05-13T15:59:51.072Z,23.39
2023-05-13T16:02:22.922Z,23.27
2023-05-13T16:04:54.530Z,23.14
2023-05-13T16:07:26.316Z,22.98
2023-05-13T16:09:57.969Z,22.84
2023-05-13T16:12:31.561Z,22.69
2023-05-13T16:15:03.253Z,22.59
2023-05-13T16:17:36.043Z,22.45
2023-05-13T16:20:11.390Z,22.36
2023-05-13T16:22:42.200Z,22.25
2023-05-13T16:25:14.042Z,22.15
2023-05-13T16:27:45.657Z,22.06
2023-05-13T16:30:17.547Z,21.98
2023-05-13T16:32:51.092Z,21.90
2023-05-13T16:35:43.807Z,21.84
2023-05-13T16:38:15.989Z,21.78
2023-05-13T16:40:47.913Z,21.71
2023-05-13T16:43:19.992Z,21.64
2023-05-13T16:45:51.681Z,21.59
2023-05-13T16:48:23.322Z,21.54
2023-05-13T16:50:56.269Z,21.50
2023-05-13T16:53:28.278Z,21.44
2023-05-13T16:55:59.998Z,21.38
2023-05-13T16:58:31.655Z,21.33
2023-05-13T17:01:03.779Z,21.28
2023-05-13T17:03:36.283Z,21.23
2023-05-13T17:06:09.503Z,21.17
2023-05-13T17:08:41.542Z,21.12
2023-05-13T17:11:14.890Z,21.07
2023-05-13T17:13:46.729Z,21.02
2023-05-13T17:16:18.371Z,20.99
2023-05-13T17:18:50.154Z,20.99
2023-05-13T17:21:21.950Z,20.97
2023-05-13T17:23:54.197Z,20.92
2023-05-13T17:26:26.474Z,20.84
2023-05-13T17:28:59.613Z,20.79
2023-05-13T17:31:31.729Z,20.72
2023-05-13T17:34:03.313Z,20.66
2023-05-13T17:36:35.619Z,20.60
2023-05-13T17:39:07.298Z,20.55
2023-05-13T17:41:39.233Z,20.49
2023-05-13T17:44:10.762Z,20.44
2023-05-13T17:46:42.298Z,20.39
2023-05-13T17:49:13.954Z,20.33
2023-05-13T17:51:47.313Z,20.28
2023-05-13T17:54:18.936Z,20.23
2023-05-13T17:56:50.776Z,20.18
2023-05-13T17:59:22.406Z,20.14
2023-05-13T18:01:54.165Z,20.11
2023-05-13T18:04:26.076Z,20.05
2023-05-13T18:06:57.801Z,20.01
2023-05-13T18:09:29.429Z,19.98
2023-05-13T18:12:00.961Z,19.94
2023-05-13T18:14:33.618Z,19.91
2023-05-13T18:17:05.688Z,19.86
2023-05-13T18:19:37.253Z,19.83
2023-05-13T18:22:12.343Z,19.79
2023-05-13T18:24:43.871Z,19.77
2023-05-13T18:27:15.429Z,19.71
2023-05-13T18:29:47.736Z,19.65
2023-05-13T18:32:19.335Z,19.61
2023-05-13T18:34:51.245Z,19.53
2023-05-13T18:37:23.009Z,19.41
2023-05-13T18:39:54.724Z,19.34
2023-05-13T18:42:26.760Z,19.29
2023-05-13T18:44:58.809Z,19.25
2023-05-13T18:47:30.649Z,19.19
2023-05-13T18:50:02.618Z,19.16
2023-05-13T18:52:35.745Z,19.10
2023-05-13T18:55:09.146Z,19.08
2023-05-13T18:57:41.060Z,19.06
2023-05-13T19:00:13.713Z,19.06
2023-05-13T19:02:46.368Z,19.03
2023-05-13T19:05:20.421Z,19.02
2023-05-13T19:07:52.637Z,19.02
2023-05-13T19:10:24.892Z,19.01
2023-05-13T19:12:57.563Z,19.03
2023-05-13T19:15:29.488Z,19.04
2023-05-13T19:18:01.383Z,19.05
2023-05-13T19:20:33.892Z,19.07
2023-05-13T19:23:05.756Z,19.08
2023-05-13T19:25:39.521Z,19.08
2023-05-13T19:28:12.486Z,19.08
2023-05-13T19:30:44.403Z,19.04
2023-05-13T19:33:16.197Z,19.01
2023-05-13T19:35:48.753Z,18.97
2023-05-13T19:38:22.297Z,18.92
2023-05-13T19:40:54.091Z,18.90
2023-05-13T19:43:26.151Z,18.87
2023-05-13T19:45:58.258Z,18.81
2023-05-13T19:48:30.757Z,18.75
2023-05-13T19:51:02.400Z,18.71
2023-05-13T19:53:34.186Z,18.69
2023-05-13T19:56:06.278Z,18.67
2023-05-13T19:58:37.849Z,18.67
2023-05-13T20:01:11.590Z,18.64
2023-05-13T20:03:43.293Z,18.62
2023-05-13T20:06:15.136Z,18.62
2023-05-13T20:08:46.793Z,18.60
2023-05-13T20:11:19.169Z,18.59
2023-05-13T20:13:51.171Z,18.60
2023-05-13T20:16:23.608Z,18.59
2023-05-13T20:18:55.324Z,18.62
2023-05-13T20:21:27.130Z,18.65
2023-05-13T20:23:59.012Z,18.69
2023-05-13T20:26:32.320Z,18.68
2023-05-13T20:29:04.462Z,18.65
2023-05-13T20:31:36.440Z,18.63
2023-05-13T20:34:08.294Z,18.61
2023-05-13T20:36:40.278Z,18.57
2023-05-13T20:39:12.137Z,18.52
2023-05-13T20:41:44.804Z,18.50
2023-05-13T20:44:17.688Z,18.49
2023-05-13T20:46:49.710Z,18.46
2023-05-13T20:49:21.818Z,18.45
2023-05-13T20:51:53.424Z,18.43
2023-05-13T20:54:25.078Z,18.42
2023-05-13T20:56:56.871Z,18.39
2023-05-13T20:59:28.807Z,18.38
2023-05-13T21:02:00.383Z,18.37
2023-05-13T21:04:32.506Z,18.35
2023-05-13T21:07:05.257Z,18.34
2023-05-13T21:09:37.105Z,18.33
2023-05-13T21:12:09.010Z,18.33
2023-05-13T21:14:41.322Z,18.34
2023-05-13T21:17:13.852Z,18.34
2023-05-13T21:19:45.530Z,18.35
2023-05-13T21:22:38.087Z,18.35
2023-05-13T21:25:10.249Z,18.37
2023-05-13T21:27:42.939Z,18.39
2023-05-13T21:30:14.878Z,18.39
2023-05-13T21:32:46.721Z,18.40
2023-05-13T21:35:19.313Z,18.40
2023-05-13T21:37:54.042Z,18.40
2023-05-13T21:40:25.479Z,18.40
2023-05-13T21:42:57.444Z,18.40
2023-05-13T21:45:29.362Z,18.40
2023-05-13T21:48:01.493Z,18.41
2023-05-13T21:50:33.943Z,18.40
2023-05-13T21:53:05.821Z,18.40
2023-05-13T21:55:37.813Z,18.37
2023-05-13T21:58:09.436Z,18.38
2023-05-13T22:00:41.829Z,18.36
2023-05-13T22:03:12.820Z,18.35
2023-05-13T22:05:44.742Z,18.33
2023-05-13T22:08:17.129Z,18.32
2023-05-13T22:10:48.813Z,18.30
2023-05-13T22:16:03.356Z,18.26
2023-05-13T22:18:36.257Z,18.26
2023-05-13T22:21:08.029Z,18.24
2023-05-13T22:23:40.367Z,18.24
2023-05-13T22:26:12.118Z,18.20
2023-05-13T22:28:43.552Z,18.18
2023-05-13T22:31:16.014Z,18.15
2023-05-13T22:33:47.690Z,18.12
2023-05-13T22:36:19.425Z,18.09
2023-05-13T22:38:51.052Z,18.06
2023-05-13T22:41:23.854Z,18.04
2023-05-13T22:43:55.474Z,18.01
2023-05-13T22:46:27.032Z,18.00
2023-05-13T22:48:58.671Z,17.99
2023-05-13T22:51:30.548Z,17.97
2023-05-13T22:54:02.277Z,17.93
2023-05-13T22:56:34.131Z,17.91
2023-05-13T22:59:05.938Z,17.90
2023-05-13T23:01:38.004Z,17.87
2023-05-13T23:04:10.196Z,17.84
2023-05-13T23:06:42.304Z,17.80
2023-05-13T23:09:14.017Z,17.78
2023-05-13T23:11:47.067Z,17.74
2023-05-13T23:14:18.986Z,17.72
2023-05-13T23:16:50.788Z,17.71
2023-05-13T23:19:22.293Z,17.67
2023-05-13T23:21:54.088Z,17.65
2023-05-13T23:24:25.783Z,17.62
2023-05-13T23:26:57.246Z,17.58
2023-05-13T23:29:28.922Z,17.55
2023-05-13T23:32:01.216Z,17.51
2023-05-13T23:34:33.279Z,17.50
2023-05-13T23:37:05.023Z,17.48
2023-05-13T23:39:37.204Z,17.47
2023-05-13T23:42:08.956Z,17.45
2023-05-13T23:44:40.659Z,17.44
2023-05-13T23:47:13.031Z,17.43
2023-05-13T23:49:44.854Z,17.43
2023-05-13T23:52:17.246Z,17.43
2023-05-13T23:54:48.993Z,17.41
2023-05-13T23:57:21.312Z,17.39
2023-05-13T23:59:53.224Z,17.35
